sensor_id;sensor_type;location;lat;lon;timestamp;P1;durP1;ratioP1;P2;durP2;ratioP2
21816;SDS011;13247;47.504;7.382;2024-02-26T00:01:45;2.95;;;1.50;;
21816;SDS011;13247;47.504;7.382;2024-02-26T00:04:30;1.27;;;1.02;;
21816;SDS011;13247;47.504;7.382;2024-02-26T00:07:14;0.98;;;0.85;;
21816;SDS011;13247;47.504;7.382;2024-02-26T00:10:00;0.85;;;0.70;;
21816;SDS011;13247;47.504;7.382;2024-02-26T00:12:44;0.68;;;0.68;;
21816;SDS011;13247;47.504;7.382;2024-02-26T00:15:29;0.80;;;0.80;;
21816;SDS011;13247;47.504;7.382;2024-02-26T00:18:13;0.73;;;0.70;;
21816;SDS011;13247;47.504;7.382;2024-02-26T00:20:58;0.57;;;0.57;;
21816;SDS011;13247;47.504;7.382;2024-02-26T00:23:44;1.85;;;0.60;;
21816;SDS011;13247;47.504;7.382;2024-02-26T00:26:29;3.35;;;0.90;;
21816;SDS011;13247;47.504;7.382;2024-02-26T00:29:13;3.08;;;0.95;;
21816;SDS011;13247;47.504;7.382;2024-02-26T00:31:58;0.73;;;0.65;;
21816;SDS011;13247;47.504;7.382;2024-02-26T00:34:43;0.70;;;0.70;;
21816;SDS011;13247;47.504;7.382;2024-02-26T00:37:27;1.38;;;1.10;;
21816;SDS011;13247;47.504;7.382;2024-02-26T00:40:12;0.73;;;0.73;;
21816;SDS011;13247;47.504;7.382;2024-02-26T00:42:57;2.22;;;1.60;;
21816;SDS011;13247;47.504;7.382;2024-02-26T00:45:42;3.83;;;2.40;;
21816;SDS011;13247;47.504;7.382;2024-02-26T00:48:26;4.75;;;2.22;;
21816;SDS011;13247;47.504;7.382;2024-02-26T00:51:11;2.35;;;1.90;;
21816;SDS011;13247;47.504;7.382;2024-02-26T00:53:55;4.00;;;2.20;;
21816;SDS011;13247;47.504;7.382;2024-02-26T00:56:40;5.35;;;2.35;;
21816;SDS011;13247;47.504;7.382;2024-02-26T00:59:24;10.25;;;2.17;;
21816;SDS011;13247;47.504;7.382;2024-02-26T01:02:09;6.25;;;2.53;;
21816;SDS011;13247;47.504;7.382;2024-02-26T01:04:53;3.60;;;2.30;;
21816;SDS011;13247;47.504;7.382;2024-02-26T01:07:38;6.35;;;2.15;;
21816;SDS011;13247;47.504;7.382;2024-02-26T01:10:23;4.50;;;2.55;;
21816;SDS011;13247;47.504;7.382;2024-02-26T01:13:07;7.15;;;2.55;;
21816;SDS011;13247;47.504;7.382;2024-02-26T01:15:55;4.20;;;2.47;;
21816;SDS011;13247;47.504;7.382;2024-02-26T01:18:39;3.08;;;2.05;;
21816;SDS011;13247;47.504;7.382;2024-02-26T01:21:24;3.30;;;2.05;;
21816;SDS011;13247;47.504;7.382;2024-02-26T01:24:12;3.55;;;1.58;;
21816;SDS011;13247;47.504;7.382;2024-02-26T01:26:57;2.60;;;1.60;;
21816;SDS011;13247;47.504;7.382;2024-02-26T01:29:41;1.70;;;1.50;;
21816;SDS011;13247;47.504;7.382;2024-02-26T01:32:26;1.85;;;1.25;;
21816;SDS011;13247;47.504;7.382;2024-02-26T01:35:11;1.92;;;1.70;;
21816;SDS011;13247;47.504;7.382;2024-02-26T01:37:56;2.42;;;1.48;;
21816;SDS011;13247;47.504;7.382;2024-02-26T01:40:42;3.60;;;1.42;;
21816;SDS011;13247;47.504;7.382;2024-02-26T01:43:26;2.45;;;1.50;;
21816;SDS011;13247;47.504;7.382;2024-02-26T01:46:12;2.90;;;1.90;;
21816;SDS011;13247;47.504;7.382;2024-02-26T01:48:58;2.22;;;1.67;;
21816;SDS011;13247;47.504;7.382;2024-02-26T01:51:43;3.33;;;1.80;;
21816;SDS011;13247;47.504;7.382;2024-02-26T01:54:28;2.47;;;1.95;;
21816;SDS011;13247;47.504;7.382;2024-02-26T01:57:14;2.55;;;1.85;;
21816;SDS011;13247;47.504;7.382;2024-02-26T01:59:59;2.67;;;1.73;;
21816;SDS011;13247;47.504;7.382;2024-02-26T02:02:44;4.20;;;1.95;;
21816;SDS011;13247;47.504;7.382;2024-02-26T02:05:31;6.10;;;1.83;;
21816;SDS011;13247;47.504;7.382;2024-02-26T02:08:18;3.47;;;1.75;;
21816;SDS011;13247;47.504;7.382;2024-02-26T02:11:03;4.15;;;1.70;;
21816;SDS011;13247;47.504;7.382;2024-02-26T02:13:47;2.85;;;1.48;;
21816;SDS011;13247;47.504;7.382;2024-02-26T02:16:32;1.50;;;1.23;;
21816;SDS011;13247;47.504;7.382;2024-02-26T02:19:17;6.47;;;2.03;;
21816;SDS011;13247;47.504;7.382;2024-02-26T02:22:02;3.08;;;1.55;;
21816;SDS011;13247;47.504;7.382;2024-02-26T02:24:47;1.48;;;1.13;;
21816;SDS011;13247;47.504;7.382;2024-02-26T02:27:32;2.95;;;1.80;;
21816;SDS011;13247;47.504;7.382;2024-02-26T02:30:18;2.28;;;1.52;;
21816;SDS011;13247;47.504;7.382;2024-02-26T02:33:03;1.98;;;1.35;;
21816;SDS011;13247;47.504;7.382;2024-02-26T02:35:48;2.75;;;1.45;;
21816;SDS011;13247;47.504;7.382;2024-02-26T02:38:34;1.55;;;1.13;;
21816;SDS011;13247;47.504;7.382;2024-02-26T02:41:21;1.50;;;0.90;;
21816;SDS011;13247;47.504;7.382;2024-02-26T02:44:06;1.10;;;0.95;;
21816;SDS011;13247;47.504;7.382;2024-02-26T02:46:50;1.38;;;0.95;;
21816;SDS011;13247;47.504;7.382;2024-02-26T02:49:36;2.83;;;0.77;;
21816;SDS011;13247;47.504;7.382;2024-02-26T02:52:22;0.93;;;0.88;;
21816;SDS011;13247;47.504;7.382;2024-02-26T02:55:07;1.73;;;1.25;;
21816;SDS011;13247;47.504;7.382;2024-02-26T02:57:52;11.80;;;1.70;;
21816;SDS011;13247;47.504;7.382;2024-02-26T03:00:36;2.17;;;1.58;;
21816;SDS011;13247;47.504;7.382;2024-02-26T03:03:21;2.58;;;1.38;;
21816;SDS011;13247;47.504;7.382;2024-02-26T03:06:07;1.55;;;1.23;;
21816;SDS011;13247;47.504;7.382;2024-02-26T03:08:53;2.45;;;1.42;;
21816;SDS011;13247;47.504;7.382;2024-02-26T03:11:38;2.83;;;1.40;;
21816;SDS011;13247;47.504;7.382;2024-02-26T03:14:23;3.67;;;1.23;;
21816;SDS011;13247;47.504;7.382;2024-02-26T03:17:08;1.33;;;1.15;;
21816;SDS011;13247;47.504;7.382;2024-02-26T03:19:53;2.40;;;1.80;;
21816;SDS011;13247;47.504;7.382;2024-02-26T03:22:39;3.50;;;2.17;;
21816;SDS011;13247;47.504;7.382;2024-02-26T03:25:23;1.90;;;1.70;;
21816;SDS011;13247;47.504;7.382;2024-02-26T03:28:08;1.67;;;1.58;;
21816;SDS011;13247;47.504;7.382;2024-02-26T03:30:52;2.63;;;1.88;;
21816;SDS011;13247;47.504;7.382;2024-02-26T03:33:37;3.88;;;2.50;;
21816;SDS011;13247;47.504;7.382;2024-02-26T03:36:22;4.28;;;2.60;;
21816;SDS011;13247;47.504;7.382;2024-02-26T03:39:07;4.22;;;2.42;;
21816;SDS011;13247;47.504;7.382;2024-02-26T03:41:53;2.63;;;1.77;;
21816;SDS011;13247;47.504;7.382;2024-02-26T03:44:38;9.23;;;2.20;;
21816;SDS011;13247;47.504;7.382;2024-02-26T03:47:23;2.58;;;1.70;;
21816;SDS011;13247;47.504;7.382;2024-02-26T03:50:07;2.85;;;1.52;;
21816;SDS011;13247;47.504;7.382;2024-02-26T03:52:53;2.00;;;0.98;;
21816;SDS011;13247;47.504;7.382;2024-02-26T03:55:38;2.30;;;1.40;;
21816;SDS011;13247;47.504;7.382;2024-02-26T03:58:25;1.35;;;1.20;;
21816;SDS011;13247;47.504;7.382;2024-02-26T04:01:09;1.92;;;1.30;;
21816;SDS011;13247;47.504;7.382;2024-02-26T04:03:54;1.63;;;1.10;;
21816;SDS011;13247;47.504;7.382;2024-02-26T04:06:39;6.05;;;1.85;;
21816;SDS011;13247;47.504;7.382;2024-02-26T04:09:27;4.25;;;2.28;;
21816;SDS011;13247;47.504;7.382;2024-02-26T04:12:14;1.30;;;1.20;;
21816;SDS011;13247;47.504;7.382;2024-02-26T04:14:58;2.47;;;1.50;;
21816;SDS011;13247;47.504;7.382;2024-02-26T04:17:43;2.60;;;1.33;;
21816;SDS011;13247;47.504;7.382;2024-02-26T04:20:28;1.35;;;0.80;;
21816;SDS011;13247;47.504;7.382;2024-02-26T04:23:12;2.65;;;1.30;;
21816;SDS011;13247;47.504;7.382;2024-02-26T04:25:57;1.45;;;0.93;;
21816;SDS011;13247;47.504;7.382;2024-02-26T04:28:42;0.95;;;0.95;;
21816;SDS011;13247;47.504;7.382;2024-02-26T04:31:27;1.73;;;1.00;;
21816;SDS011;13247;47.504;7.382;2024-02-26T04:34:12;0.98;;;0.98;;
21816;SDS011;13247;47.504;7.382;2024-02-26T04:36:57;1.10;;;0.93;;
21816;SDS011;13247;47.504;7.382;2024-02-26T04:39:43;1.17;;;1.08;;
21816;SDS011;13247;47.504;7.382;2024-02-26T04:42:27;1.20;;;0.80;;
21816;SDS011;13247;47.504;7.382;2024-02-26T04:45:12;2.55;;;0.85;;
21816;SDS011;13247;47.504;7.382;2024-02-26T04:47:57;1.13;;;1.00;;
21816;SDS011;13247;47.504;7.382;2024-02-26T04:50:43;1.02;;;0.90;;
21816;SDS011;13247;47.504;7.382;2024-02-26T04:53:27;0.90;;;0.70;;
21816;SDS011;13247;47.504;7.382;2024-02-26T04:56:12;1.00;;;0.73;;
21816;SDS011;13247;47.504;7.382;2024-02-26T04:58:57;1.35;;;1.02;;
21816;SDS011;13247;47.504;7.382;2024-02-26T05:01:41;3.75;;;1.13;;
21816;SDS011;13247;47.504;7.382;2024-02-26T05:04:27;0.90;;;0.70;;
21816;SDS011;13247;47.504;7.382;2024-02-26T05:07:11;1.90;;;1.20;;
21816;SDS011;13247;47.504;7.382;2024-02-26T05:09:56;1.02;;;0.85;;
21816;SDS011;13247;47.504;7.382;2024-02-26T05:12:41;1.08;;;0.95;;
21816;SDS011;13247;47.504;7.382;2024-02-26T05:15:26;0.80;;;0.70;;
21816;SDS011;13247;47.504;7.382;2024-02-26T05:18:11;1.10;;;0.88;;
21816;SDS011;13247;47.504;7.382;2024-02-26T05:20:55;0.60;;;0.60;;
21816;SDS011;13247;47.504;7.382;2024-02-26T05:23:40;0.63;;;0.52;;
21816;SDS011;13247;47.504;7.382;2024-02-26T05:26:27;0.47;;;0.47;;
21816;SDS011;13247;47.504;7.382;2024-02-26T05:29:11;0.80;;;0.80;;
21816;SDS011;13247;47.504;7.382;2024-02-26T05:31:56;1.23;;;0.77;;
21816;SDS011;13247;47.504;7.382;2024-02-26T05:34:40;0.60;;;0.60;;
21816;SDS011;13247;47.504;7.382;2024-02-26T05:37:25;0.57;;;0.57;;
21816;SDS011;13247;47.504;7.382;2024-02-26T05:40:10;1.25;;;0.70;;
21816;SDS011;13247;47.504;7.382;2024-02-26T05:42:55;0.75;;;0.75;;
21816;SDS011;13247;47.504;7.382;2024-02-26T05:45:40;2.60;;;0.70;;
21816;SDS011;13247;47.504;7.382;2024-02-26T05:48:25;1.35;;;0.60;;
21816;SDS011;13247;47.504;7.382;2024-02-26T05:51:09;0.52;;;0.50;;
21816;SDS011;13247;47.504;7.382;2024-02-26T05:53:55;1.77;;;1.40;;
21816;SDS011;13247;47.504;7.382;2024-02-26T05:56:39;5.60;;;2.42;;
21816;SDS011;13247;47.504;7.382;2024-02-26T05:59:24;2.83;;;2.10;;
21816;SDS011;13247;47.504;7.382;2024-02-26T06:02:09;2.50;;;1.52;;
21816;SDS011;13247;47.504;7.382;2024-02-26T06:04:53;2.05;;;1.10;;
21816;SDS011;13247;47.504;7.382;2024-02-26T06:07:38;2.45;;;1.30;;
21816;SDS011;13247;47.504;7.382;2024-02-26T06:10:22;3.70;;;1.45;;
21816;SDS011;13247;47.504;7.382;2024-02-26T06:13:07;1.35;;;1.17;;
21816;SDS011;13247;47.504;7.382;2024-02-26T06:15:52;3.67;;;1.90;;
21816;SDS011;13247;47.504;7.382;2024-02-26T06:18:37;1.73;;;1.50;;
21816;SDS011;13247;47.504;7.382;2024-02-26T06:21:21;2.60;;;1.60;;
21816;SDS011;13247;47.504;7.382;2024-02-26T06:24:06;2.13;;;1.45;;
21816;SDS011;13247;47.504;7.382;2024-02-26T06:26:50;2.63;;;1.63;;
21816;SDS011;13247;47.504;7.382;2024-02-26T06:29:36;5.35;;;1.98;;
21816;SDS011;13247;47.504;7.382;2024-02-26T06:32:20;2.28;;;1.50;;
21816;SDS011;13247;47.504;7.382;2024-02-26T06:35:07;2.17;;;1.58;;
21816;SDS011;13247;47.504;7.382;2024-02-26T06:37:55;1.35;;;1.17;;
21816;SDS011;13247;47.504;7.382;2024-02-26T06:40:39;1.85;;;1.27;;
21816;SDS011;13247;47.504;7.382;2024-02-26T06:43:24;1.58;;;1.10;;
21816;SDS011;13247;47.504;7.382;2024-02-26T06:46:09;2.08;;;1.00;;
21816;SDS011;13247;47.504;7.382;2024-02-26T06:48:53;2.05;;;1.05;;
21816;SDS011;13247;47.504;7.382;2024-02-26T06:51:38;2.67;;;1.80;;
21816;SDS011;13247;47.504;7.382;2024-02-26T06:54:23;3.13;;;2.03;;
21816;SDS011;13247;47.504;7.382;2024-02-26T06:57:07;1.63;;;1.42;;
21816;SDS011;13247;47.504;7.382;2024-02-26T06:59:52;3.85;;;1.83;;
21816;SDS011;13247;47.504;7.382;2024-02-26T07:02:36;2.00;;;1.58;;
21816;SDS011;13247;47.504;7.382;2024-02-26T07:05:21;1.50;;;1.40;;
21816;SDS011;13247;47.504;7.382;2024-02-26T07:08:06;2.75;;;1.75;;
21816;SDS011;13247;47.504;7.382;2024-02-26T07:10:51;1.30;;;1.20;;
21816;SDS011;13247;47.504;7.382;2024-02-26T07:13:35;1.48;;;1.30;;
21816;SDS011;13247;47.504;7.382;2024-02-26T07:16:20;2.47;;;1.80;;
21816;SDS011;13247;47.504;7.382;2024-02-26T07:19:04;2.33;;;1.45;;
21816;SDS011;13247;47.504;7.382;2024-02-26T07:21:49;2.65;;;2.22;;
21816;SDS011;13247;47.504;7.382;2024-02-26T07:24:33;4.30;;;1.73;;
21816;SDS011;13247;47.504;7.382;2024-02-26T07:27:18;7.38;;;2.10;;
21816;SDS011;13247;47.504;7.382;2024-02-26T07:30:04;4.53;;;2.05;;
21816;SDS011;13247;47.504;7.382;2024-02-26T07:32:51;1.63;;;1.52;;
21816;SDS011;13247;47.504;7.382;2024-02-26T07:35:36;2.30;;;1.60;;
21816;SDS011;13247;47.504;7.382;2024-02-26T07:38:22;4.63;;;1.88;;
21816;SDS011;13247;47.504;7.382;2024-02-26T07:41:07;3.47;;;1.40;;
21816;SDS011;13247;47.504;7.382;2024-02-26T07:43:52;3.40;;;2.30;;
21816;SDS011;13247;47.504;7.382;2024-02-26T07:46:37;4.45;;;2.50;;
21816;SDS011;13247;47.504;7.382;2024-02-26T07:49:21;4.05;;;2.50;;
21816;SDS011;13247;47.504;7.382;2024-02-26T07:52:06;5.57;;;3.33;;
21816;SDS011;13247;47.504;7.382;2024-02-26T07:54:50;6.13;;;3.65;;
21816;SDS011;13247;47.504;7.382;2024-02-26T07:57:35;6.82;;;4.10;;
21816;SDS011;13247;47.504;7.382;2024-02-26T08:00:19;10.55;;;4.07;;
21816;SDS011;13247;47.504;7.382;2024-02-26T08:03:04;4.03;;;2.42;;
21816;SDS011;13247;47.504;7.382;2024-02-26T08:05:50;6.10;;;3.42;;
21816;SDS011;13247;47.504;7.382;2024-02-26T08:08:35;3.90;;;2.45;;
21816;SDS011;13247;47.504;7.382;2024-02-26T08:11:20;4.70;;;2.13;;
21816;SDS011;13247;47.504;7.382;2024-02-26T08:14:04;3.60;;;2.20;;
21816;SDS011;13247;47.504;7.382;2024-02-26T08:16:50;5.38;;;2.45;;
21816;SDS011;13247;47.504;7.382;2024-02-26T08:19:35;9.85;;;3.42;;
21816;SDS011;13247;47.504;7.382;2024-02-26T08:22:19;4.15;;;3.00;;
21816;SDS011;13247;47.504;7.382;2024-02-26T08:25:04;23.70;;;11.50;;
21816;SDS011;13247;47.504;7.382;2024-02-26T08:27:50;8.20;;;5.20;;
21816;SDS011;13247;47.504;7.382;2024-02-26T08:30:34;5.05;;;3.05;;
21816;SDS011;13247;47.504;7.382;2024-02-26T08:33:19;2.90;;;1.88;;
21816;SDS011;13247;47.504;7.382;2024-02-26T08:36:07;3.20;;;2.03;;
21816;SDS011;13247;47.504;7.382;2024-02-26T08:38:52;3.10;;;2.20;;
21816;SDS011;13247;47.504;7.382;2024-02-26T08:41:37;5.60;;;4.63;;
21816;SDS011;13247;47.504;7.382;2024-02-26T08:44:21;2.78;;;2.20;;
21816;SDS011;13247;47.504;7.382;2024-02-26T08:47:06;2.55;;;2.25;;
21816;SDS011;13247;47.504;7.382;2024-02-26T08:49:50;1.50;;;1.40;;
21816;SDS011;13247;47.504;7.382;2024-02-26T08:52:35;1.80;;;1.40;;
21816;SDS011;13247;47.504;7.382;2024-02-26T08:55:20;4.60;;;2.10;;
21816;SDS011;13247;47.504;7.382;2024-02-26T08:58:05;2.35;;;1.38;;
21816;SDS011;13247;47.504;7.382;2024-02-26T09:00:49;3.25;;;2.05;;
21816;SDS011;13247;47.504;7.382;2024-02-26T09:03:34;2.08;;;1.63;;
21816;SDS011;13247;47.504;7.382;2024-02-26T09:06:18;2.15;;;1.52;;
21816;SDS011;13247;47.504;7.382;2024-02-26T09:09:04;1.60;;;1.50;;
21816;SDS011;13247;47.504;7.382;2024-02-26T09:11:49;4.60;;;2.60;;
21816;SDS011;13247;47.504;7.382;2024-02-26T09:14:35;2.20;;;1.60;;
21816;SDS011;13247;47.504;7.382;2024-02-26T09:17:20;2.03;;;1.60;;
21816;SDS011;13247;47.504;7.382;2024-02-26T09:20:04;2.15;;;1.95;;
21816;SDS011;13247;47.504;7.382;2024-02-26T09:22:52;2.25;;;1.63;;
21816;SDS011;13247;47.504;7.382;2024-02-26T09:25:37;3.00;;;2.30;;
21816;SDS011;13247;47.504;7.382;2024-02-26T09:28:22;4.00;;;2.38;;
21816;SDS011;13247;47.504;7.382;2024-02-26T09:31:06;1.90;;;1.67;;
21816;SDS011;13247;47.504;7.382;2024-02-26T09:33:51;3.40;;;1.73;;
21816;SDS011;13247;47.504;7.382;2024-02-26T09:36:35;2.35;;;2.00;;
21816;SDS011;13247;47.504;7.382;2024-02-26T09:39:20;6.13;;;3.22;;
21816;SDS011;13247;47.504;7.382;2024-02-26T09:42:05;3.10;;;1.88;;
21816;SDS011;13247;47.504;7.382;2024-02-26T09:44:54;3.95;;;1.98;;
21816;SDS011;13247;47.504;7.382;2024-02-26T09:47:39;13.27;;;8.63;;
21816;SDS011;13247;47.504;7.382;2024-02-26T09:50:25;28.25;;;14.10;;
21816;SDS011;13247;47.504;7.382;2024-02-26T09:53:12;13.00;;;6.55;;
21816;SDS011;13247;47.504;7.382;2024-02-26T09:55:58;4.18;;;2.53;;
21816;SDS011;13247;47.504;7.382;2024-02-26T09:58:43;4.90;;;2.10;;
21816;SDS011;13247;47.504;7.382;2024-02-26T10:01:32;5.43;;;2.92;;
21816;SDS011;13247;47.504;7.382;2024-02-26T10:04:18;5.55;;;3.15;;
21816;SDS011;13247;47.504;7.382;2024-02-26T10:07:04;2.28;;;1.88;;
21816;SDS011;13247;47.504;7.382;2024-02-26T10:09:53;3.92;;;2.80;;
21816;SDS011;13247;47.504;7.382;2024-02-26T10:12:38;1.38;;;1.27;;
21816;SDS011;13247;47.504;7.382;2024-02-26T10:15:23;2.85;;;1.55;;
21816;SDS011;13247;47.504;7.382;2024-02-26T10:18:07;1.33;;;1.17;;
21816;SDS011;13247;47.504;7.382;2024-02-26T10:20:58;2.58;;;1.00;;
21816;SDS011;13247;47.504;7.382;2024-02-26T10:23:45;3.17;;;1.42;;
21816;SDS011;13247;47.504;7.382;2024-02-26T10:26:36;3.13;;;1.80;;
21816;SDS011;13247;47.504;7.382;2024-02-26T10:29:23;2.15;;;1.35;;
21816;SDS011;13247;47.504;7.382;2024-02-26T10:32:09;1.25;;;1.10;;
21816;SDS011;13247;47.504;7.382;2024-02-26T10:34:58;1.95;;;1.40;;
21816;SDS011;13247;47.504;7.382;2024-02-26T10:37:42;1.42;;;1.15;;
21816;SDS011;13247;47.504;7.382;2024-02-26T10:40:27;2.15;;;1.40;;
21816;SDS011;13247;47.504;7.382;2024-02-26T10:43:12;1.92;;;1.33;;
21816;SDS011;13247;47.504;7.382;2024-02-26T10:45:58;1.40;;;1.25;;
21816;SDS011;13247;47.504;7.382;2024-02-26T10:48:49;4.38;;;1.92;;
21816;SDS011;13247;47.504;7.382;2024-02-26T10:51:35;2.28;;;1.58;;
21816;SDS011;13247;47.504;7.382;2024-02-26T10:54:23;2.58;;;1.65;;
21816;SDS011;13247;47.504;7.382;2024-02-26T10:57:13;2.92;;;1.58;;
21816;SDS011;13247;47.504;7.382;2024-02-26T11:00:01;1.50;;;1.30;;
21816;SDS011;13247;47.504;7.382;2024-02-26T11:02:48;2.53;;;1.42;;
21816;SDS011;13247;47.504;7.382;2024-02-26T11:05:34;1.50;;;1.35;;
21816;SDS011;13247;47.504;7.382;2024-02-26T11:08:21;3.45;;;1.55;;
21816;SDS011;13247;47.504;7.382;2024-02-26T11:11:08;2.80;;;2.33;;
21816;SDS011;13247;47.504;7.382;2024-02-26T11:13:56;3.10;;;1.73;;
21816;SDS011;13247;47.504;7.382;2024-02-26T11:16:42;2.80;;;2.47;;
21816;SDS011;13247;47.504;7.382;2024-02-26T11:19:28;1.88;;;1.20;;
21816;SDS011;13247;47.504;7.382;2024-02-26T11:22:19;1.92;;;1.27;;
21816;SDS011;13247;47.504;7.382;2024-02-26T11:25:05;0.80;;;0.80;;
21816;SDS011;13247;47.504;7.382;2024-02-26T11:27:58;2.40;;;1.10;;
21816;SDS011;13247;47.504;7.382;2024-02-26T11:30:48;1.58;;;1.00;;
21816;SDS011;13247;47.504;7.382;2024-02-26T11:33:35;3.15;;;1.67;;
21816;SDS011;13247;47.504;7.382;2024-02-26T11:36:20;1.50;;;1.27;;
21816;SDS011;13247;47.504;7.382;2024-02-26T11:39:07;1.30;;;1.00;;
21816;SDS011;13247;47.504;7.382;2024-02-26T11:41:55;0.90;;;0.90;;
21816;SDS011;13247;47.504;7.382;2024-02-26T11:44:50;1.80;;;1.58;;
21816;SDS011;13247;47.504;7.382;2024-02-26T11:47:35;3.00;;;1.90;;
21816;SDS011;13247;47.504;7.382;2024-02-26T11:50:36;10.02;;;4.40;;
21816;SDS011;13247;47.504;7.382;2024-02-26T11:59:04;1.13;;;0.88;;
21816;SDS011;13247;47.504;7.382;2024-02-26T12:01:54;1.23;;;0.73;;
21816;SDS011;13247;47.504;7.382;2024-02-26T12:04:39;0.70;;;0.70;;
21816;SDS011;13247;47.504;7.382;2024-02-26T12:07:24;1.55;;;0.80;;
21816;SDS011;13247;47.504;7.382;2024-02-26T12:16:00;1.05;;;0.90;;
21816;SDS011;13247;47.504;7.382;2024-02-26T12:18:45;4.38;;;1.23;;
21816;SDS011;13247;47.504;7.382;2024-02-26T12:21:30;0.82;;;0.82;;
21816;SDS011;13247;47.504;7.382;2024-02-26T12:24:16;4.20;;;0.80;;
21816;SDS011;13247;47.504;7.382;2024-02-26T12:27:03;1.38;;;0.80;;
21816;SDS011;13247;47.504;7.382;2024-02-26T12:29:48;1.30;;;0.82;;
21816;SDS011;13247;47.504;7.382;2024-02-26T12:32:32;0.63;;;0.52;;
21816;SDS011;13247;47.504;7.382;2024-02-26T12:35:18;0.70;;;0.70;;
21816;SDS011;13247;47.504;7.382;2024-02-26T12:38:03;1.60;;;0.80;;
21816;SDS011;13247;47.504;7.382;2024-02-26T12:40:48;2.33;;;0.60;;
21816;SDS011;13247;47.504;7.382;2024-02-26T12:43:34;0.70;;;0.50;;
21816;SDS011;13247;47.504;7.382;2024-02-26T12:46:18;0.60;;;0.60;;
21816;SDS011;13247;47.504;7.382;2024-02-26T12:49:04;2.47;;;0.90;;
21816;SDS011;13247;47.504;7.382;2024-02-26T12:51:50;5.18;;;0.50;;
21816;SDS011;13247;47.504;7.382;2024-02-26T12:54:35;1.13;;;0.80;;
21816;SDS011;13247;47.504;7.382;2024-02-26T12:57:22;0.57;;;0.57;;
21816;SDS011;13247;47.504;7.382;2024-02-26T13:00:08;0.98;;;0.63;;
21816;SDS011;13247;47.504;7.382;2024-02-26T13:02:56;0.63;;;0.60;;
21816;SDS011;13247;47.504;7.382;2024-02-26T13:05:43;0.77;;;0.63;;
21816;SDS011;13247;47.504;7.382;2024-02-26T13:08:28;0.50;;;0.50;;
21816;SDS011;13247;47.504;7.382;2024-02-26T13:11:15;2.65;;;0.70;;
21816;SDS011;13247;47.504;7.382;2024-02-26T13:14:00;0.90;;;0.70;;
21816;SDS011;13247;47.504;7.382;2024-02-26T13:16:45;1.05;;;0.65;;
21816;SDS011;13247;47.504;7.382;2024-02-26T13:19:48;0.60;;;0.50;;
21816;SDS011;13247;47.504;7.382;2024-02-26T13:22:34;0.68;;;0.60;;
21816;SDS011;13247;47.504;7.382;2024-02-26T13:25:22;0.60;;;0.60;;
21816;SDS011;13247;47.504;7.382;2024-02-26T13:28:17;0.85;;;0.80;;
21816;SDS011;13247;47.504;7.382;2024-02-26T13:31:03;0.60;;;0.60;;
21816;SDS011;13247;47.504;7.382;2024-02-26T13:33:51;0.93;;;0.45;;
21816;SDS011;13247;47.504;7.382;2024-02-26T13:36:38;0.40;;;0.40;;
21816;SDS011;13247;47.504;7.382;2024-02-26T13:39:23;0.93;;;0.90;;
21816;SDS011;13247;47.504;7.382;2024-02-26T13:42:09;1.17;;;0.70;;
21816;SDS011;13247;47.504;7.382;2024-02-26T13:44:55;1.25;;;0.90;;
21816;SDS011;13247;47.504;7.382;2024-02-26T13:47:39;1.27;;;1.13;;
21816;SDS011;13247;47.504;7.382;2024-02-26T13:50:25;1.52;;;1.10;;
21816;SDS011;13247;47.504;7.382;2024-02-26T13:53:09;0.90;;;0.88;;
21816;SDS011;13247;47.504;7.382;2024-02-26T13:55:54;0.60;;;0.60;;
21816;SDS011;13247;47.504;7.382;2024-02-26T13:58:40;0.63;;;0.40;;
21816;SDS011;13247;47.504;7.382;2024-02-26T14:01:25;0.90;;;0.70;;
21816;SDS011;13247;47.504;7.382;2024-02-26T14:04:09;2.08;;;0.45;;
21816;SDS011;13247;47.504;7.382;2024-02-26T14:06:54;1.30;;;0.70;;
21816;SDS011;13247;47.504;7.382;2024-02-26T14:09:38;1.13;;;0.85;;
21816;SDS011;13247;47.504;7.382;2024-02-26T14:12:23;0.82;;;0.50;;
21816;SDS011;13247;47.504;7.382;2024-02-26T14:15:08;1.63;;;0.68;;
21816;SDS011;13247;47.504;7.382;2024-02-26T14:17:54;0.60;;;0.60;;
21816;SDS011;13247;47.504;7.382;2024-02-26T14:20:39;1.05;;;0.88;;
21816;SDS011;13247;47.504;7.382;2024-02-26T14:23:24;0.60;;;0.50;;
21816;SDS011;13247;47.504;7.382;2024-02-26T14:26:08;0.82;;;0.55;;
21816;SDS011;13247;47.504;7.382;2024-02-26T14:28:53;0.73;;;0.40;;
21816;SDS011;13247;47.504;7.382;2024-02-26T14:31:39;0.60;;;0.60;;
21816;SDS011;13247;47.504;7.382;2024-02-26T14:34:23;1.67;;;0.70;;
21816;SDS011;13247;47.504;7.382;2024-02-26T14:37:08;0.98;;;0.70;;
21816;SDS011;13247;47.504;7.382;2024-02-26T14:39:53;1.10;;;0.70;;
21816;SDS011;13247;47.504;7.382;2024-02-26T14:42:37;0.40;;;0.40;;
21816;SDS011;13247;47.504;7.382;2024-02-26T14:45:23;0.77;;;0.57;;
21816;SDS011;13247;47.504;7.382;2024-02-26T14:48:08;1.85;;;0.50;;
21816;SDS011;13247;47.504;7.382;2024-02-26T14:50:54;0.73;;;0.70;;
21816;SDS011;13247;47.504;7.382;2024-02-26T14:53:39;1.30;;;0.70;;
21816;SDS011;13247;47.504;7.382;2024-02-26T14:56:23;0.55;;;0.55;;
21816;SDS011;13247;47.504;7.382;2024-02-26T14:59:08;1.20;;;0.70;;
21816;SDS011;13247;47.504;7.382;2024-02-26T15:01:52;0.88;;;0.68;;
21816;SDS011;13247;47.504;7.382;2024-02-26T15:04:37;0.50;;;0.40;;
21816;SDS011;13247;47.504;7.382;2024-02-26T15:07:21;0.65;;;0.65;;
21816;SDS011;13247;47.504;7.382;2024-02-26T15:10:06;2.08;;;0.68;;
21816;SDS011;13247;47.504;7.382;2024-02-26T15:12:52;1.25;;;0.70;;
21816;SDS011;13247;47.504;7.382;2024-02-26T15:15:38;1.10;;;0.70;;
21816;SDS011;13247;47.504;7.382;2024-02-26T15:18:24;4.15;;;0.63;;
21816;SDS011;13247;47.504;7.382;2024-02-26T15:21:10;0.50;;;0.50;;
21816;SDS011;13247;47.504;7.382;2024-02-26T15:23:56;0.50;;;0.50;;
21816;SDS011;13247;47.504;7.382;2024-02-26T15:26:41;2.15;;;0.60;;
21816;SDS011;13247;47.504;7.382;2024-02-26T15:29:26;2.90;;;0.85;;
21816;SDS011;13247;47.504;7.382;2024-02-26T15:32:11;0.85;;;0.50;;
21816;SDS011;13247;47.504;7.382;2024-02-26T15:34:56;1.25;;;0.80;;
21816;SDS011;13247;47.504;7.382;2024-02-26T15:37:41;1.42;;;1.08;;
21816;SDS011;13247;47.504;7.382;2024-02-26T15:40:26;1.52;;;1.10;;
21816;SDS011;13247;47.504;7.382;2024-02-26T15:43:10;2.10;;;1.20;;
21816;SDS011;13247;47.504;7.382;2024-02-26T15:45:55;3.60;;;1.50;;
21816;SDS011;13247;47.504;7.382;2024-02-26T15:48:39;1.27;;;0.73;;
21816;SDS011;13247;47.504;7.382;2024-02-26T15:51:24;1.17;;;1.00;;
21816;SDS011;13247;47.504;7.382;2024-02-26T15:54:08;2.08;;;1.33;;
21816;SDS011;13247;47.504;7.382;2024-02-26T15:56:53;1.15;;;1.05;;
21816;SDS011;13247;47.504;7.382;2024-02-26T15:59:38;1.30;;;0.82;;
21816;SDS011;13247;47.504;7.382;2024-02-26T16:02:23;0.70;;;0.70;;
21816;SDS011;13247;47.504;7.382;2024-02-26T16:05:09;1.98;;;0.70;;
21816;SDS011;13247;47.504;7.382;2024-02-26T16:07:56;1.42;;;0.80;;
21816;SDS011;13247;47.504;7.382;2024-02-26T16:10:46;1.27;;;0.80;;
21816;SDS011;13247;47.504;7.382;2024-02-26T16:13:32;0.57;;;0.50;;
21816;SDS011;13247;47.504;7.382;2024-02-26T16:16:18;1.42;;;1.00;;
21816;SDS011;13247;47.504;7.382;2024-02-26T16:19:13;1.27;;;0.80;;
21816;SDS011;13247;47.504;7.382;2024-02-26T16:24:44;0.45;;;0.45;;
21816;SDS011;13247;47.504;7.382;2024-02-26T16:27:29;2.40;;;0.90;;
21816;SDS011;13247;47.504;7.382;2024-02-26T16:30:14;2.03;;;1.10;;
21816;SDS011;13247;47.504;7.382;2024-02-26T16:32:59;1.77;;;1.10;;
21816;SDS011;13247;47.504;7.382;2024-02-26T16:35:44;1.33;;;1.00;;
21816;SDS011;13247;47.504;7.382;2024-02-26T16:38:29;1.17;;;1.02;;
21816;SDS011;13247;47.504;7.382;2024-02-26T16:41:13;2.47;;;1.15;;
21816;SDS011;13247;47.504;7.382;2024-02-26T16:43:58;0.68;;;0.68;;
21816;SDS011;13247;47.504;7.382;2024-02-26T16:46:42;1.00;;;0.63;;
21816;SDS011;13247;47.504;7.382;2024-02-26T16:49:27;1.75;;;0.68;;
21816;SDS011;13247;47.504;7.382;2024-02-26T16:52:11;0.77;;;0.68;;